sensor_id;sensor_type;location;lat;lon;timestamp;P1;durP1;ratioP1;P2;durP2;ratioP2
54919;SDS011;63804;53.120;8.764;2023-08-17T00:02:12;5.43;;;1.60;;
54919;SDS011;63804;53.120;8.764;2023-08-17T00:04:40;6.95;;;1.55;;
54919;SDS011;63804;53.120;8.764;2023-08-17T00:07:07;5.68;;;1.83;;
54919;SDS011;63804;53.120;8.764;2023-08-17T00:09:35;5.93;;;1.60;;
54919;SDS011;63804;53.120;8.764;2023-08-17T00:12:02;5.32;;;1.63;;
54919;SDS011;63804;53.120;8.764;2023-08-17T00:14:31;8.50;;;1.90;;
54919;SDS011;63804;53.120;8.764;2023-08-17T00:16:59;5.78;;;1.60;;
54919;SDS011;63804;53.120;8.764;2023-08-17T00:19:26;6.13;;;1.77;;
54919;SDS011;63804;53.120;8.764;2023-08-17T00:21:53;4.65;;;1.40;;
54919;SDS011;63804;53.120;8.764;2023-08-17T00:24:22;5.68;;;1.60;;
54919;SDS011;63804;53.120;8.764;2023-08-17T00:26:49;9.30;;;1.88;;
54919;SDS011;63804;53.120;8.764;2023-08-17T00:29:16;6.00;;;1.70;;
54919;SDS011;63804;53.120;8.764;2023-08-17T00:31:44;7.68;;;1.60;;
54919;SDS011;63804;53.120;8.764;2023-08-17T00:34:11;6.90;;;1.80;;
54919;SDS011;63804;53.120;8.764;2023-08-17T00:36:39;8.20;;;1.90;;
54919;SDS011;63804;53.120;8.764;2023-08-17T00:39:06;5.65;;;1.60;;
54919;SDS011;63804;53.120;8.764;2023-08-17T00:41:33;6.43;;;1.60;;
54919;SDS011;63804;53.120;8.764;2023-08-17T00:44:01;7.93;;;1.67;;
54919;SDS011;63804;53.120;8.764;2023-08-17T00:46:29;5.63;;;1.42;;
54919;SDS011;63804;53.120;8.764;2023-08-17T00:48:57;5.72;;;1.98;;
54919;SDS011;63804;53.120;8.764;2023-08-17T00:51:26;7.30;;;1.48;;
54919;SDS011;63804;53.120;8.764;2023-08-17T00:53:54;5.55;;;1.63;;
54919;SDS011;63804;53.120;8.764;2023-08-17T00:56:28;6.15;;;1.70;;
54919;SDS011;63804;53.120;8.764;2023-08-17T00:58:56;5.25;;;2.05;;
54919;SDS011;63804;53.120;8.764;2023-08-17T01:01:24;6.30;;;1.80;;
54919;SDS011;63804;53.120;8.764;2023-08-17T01:03:51;6.00;;;1.73;;
54919;SDS011;63804;53.120;8.764;2023-08-17T01:06:19;7.85;;;1.65;;
54919;SDS011;63804;53.120;8.764;2023-08-17T01:08:47;6.55;;;1.80;;
54919;SDS011;63804;53.120;8.764;2023-08-17T01:14:01;5.50;;;1.80;;
54919;SDS011;63804;53.120;8.764;2023-08-17T01:16:40;5.57;;;1.70;;
54919;SDS011;63804;53.120;8.764;2023-08-17T01:19:13;5.38;;;1.40;;
54919;SDS011;63804;53.120;8.764;2023-08-17T01:21:51;4.82;;;1.63;;
54919;SDS011;63804;53.120;8.764;2023-08-17T01:24:24;7.80;;;1.60;;
54919;SDS011;63804;53.120;8.764;2023-08-17T01:26:51;9.27;;;1.63;;
54919;SDS011;63804;53.120;8.764;2023-08-17T01:29:18;8.05;;;2.20;;
54919;SDS011;63804;53.120;8.764;2023-08-17T01:31:48;6.75;;;2.10;;
54919;SDS011;63804;53.120;8.764;2023-08-17T01:34:18;5.50;;;1.65;;
54919;SDS011;63804;53.120;8.764;2023-08-17T01:36:49;6.18;;;1.70;;
54919;SDS011;63804;53.120;8.764;2023-08-17T01:39:21;4.13;;;1.50;;
54919;SDS011;63804;53.120;8.764;2023-08-17T01:41:54;7.28;;;2.00;;
54919;SDS011;63804;53.120;8.764;2023-08-17T01:44:24;4.07;;;1.67;;
54919;SDS011;63804;53.120;8.764;2023-08-17T01:46:53;7.88;;;1.67;;
54919;SDS011;63804;53.120;8.764;2023-08-17T01:49:20;5.80;;;1.75;;
54919;SDS011;63804;53.120;8.764;2023-08-17T01:51:48;5.63;;;1.58;;
54919;SDS011;63804;53.120;8.764;2023-08-17T01:54:15;10.73;;;2.03;;
54919;SDS011;63804;53.120;8.764;2023-08-17T01:56:43;4.07;;;1.70;;
54919;SDS011;63804;53.120;8.764;2023-08-17T01:59:10;5.13;;;1.60;;
54919;SDS011;63804;53.120;8.764;2023-08-17T02:01:37;6.28;;;1.55;;
54919;SDS011;63804;53.120;8.764;2023-08-17T02:04:05;6.82;;;1.52;;
54919;SDS011;63804;53.120;8.764;2023-08-17T02:06:33;6.97;;;1.75;;
54919;SDS011;63804;53.120;8.764;2023-08-17T02:09:00;4.28;;;1.38;;
54919;SDS011;63804;53.120;8.764;2023-08-17T02:11:28;5.97;;;1.70;;
54919;SDS011;63804;53.120;8.764;2023-08-17T02:13:55;7.05;;;1.52;;
54919;SDS011;63804;53.120;8.764;2023-08-17T02:16:23;6.85;;;1.70;;
54919;SDS011;63804;53.120;8.764;2023-08-17T02:18:50;5.88;;;1.70;;
54919;SDS011;63804;53.120;8.764;2023-08-17T02:21:18;5.38;;;1.80;;
54919;SDS011;63804;53.120;8.764;2023-08-17T02:23:45;5.80;;;1.60;;
54919;SDS011;63804;53.120;8.764;2023-08-17T02:26:12;4.20;;;1.58;;
54919;SDS011;63804;53.120;8.764;2023-08-17T02:28:40;6.30;;;1.70;;
54919;SDS011;63804;53.120;8.764;2023-08-17T02:31:07;4.53;;;1.40;;
54919;SDS011;63804;53.120;8.764;2023-08-17T02:33:35;4.68;;;1.48;;
54919;SDS011;63804;53.120;8.764;2023-08-17T02:36:04;7.18;;;2.00;;
54919;SDS011;63804;53.120;8.764;2023-08-17T02:38:31;8.45;;;2.10;;
54919;SDS011;63804;53.120;8.764;2023-08-17T02:40:59;6.28;;;1.55;;
54919;SDS011;63804;53.120;8.764;2023-08-17T02:43:26;5.20;;;1.70;;
54919;SDS011;63804;53.120;8.764;2023-08-17T02:45:53;5.15;;;1.67;;
54919;SDS011;63804;53.120;8.764;2023-08-17T02:48:21;7.63;;;1.90;;
54919;SDS011;63804;53.120;8.764;2023-08-17T02:50:49;6.32;;;1.80;;
54919;SDS011;63804;53.120;8.764;2023-08-17T02:53:16;5.70;;;2.05;;
54919;SDS011;63804;53.120;8.764;2023-08-17T02:55:43;5.95;;;1.60;;
54919;SDS011;63804;53.120;8.764;2023-08-17T02:58:11;5.93;;;1.52;;
54919;SDS011;63804;53.120;8.764;2023-08-17T03:00:38;5.93;;;1.73;;
54919;SDS011;63804;53.120;8.764;2023-08-17T03:03:06;6.63;;;1.70;;
54919;SDS011;63804;53.120;8.764;2023-08-17T03:05:33;3.85;;;1.50;;
54919;SDS011;63804;53.120;8.764;2023-08-17T03:08:01;6.13;;;1.50;;
54919;SDS011;63804;53.120;8.764;2023-08-17T03:10:29;6.25;;;1.80;;
54919;SDS011;63804;53.120;8.764;2023-08-17T03:12:56;5.80;;;1.60;;
54919;SDS011;63804;53.120;8.764;2023-08-17T03:15:24;5.65;;;1.80;;
54919;SDS011;63804;53.120;8.764;2023-08-17T03:17:51;5.15;;;1.75;;
54919;SDS011;63804;53.120;8.764;2023-08-17T03:20:19;5.68;;;1.73;;
54919;SDS011;63804;53.120;8.764;2023-08-17T03:22:46;3.83;;;1.67;;
54919;SDS011;63804;53.120;8.764;2023-08-17T03:25:13;7.18;;;1.67;;
54919;SDS011;63804;53.120;8.764;2023-08-17T03:27:41;4.80;;;1.75;;
54919;SDS011;63804;53.120;8.764;2023-08-17T03:30:08;5.68;;;1.52;;
54919;SDS011;63804;53.120;8.764;2023-08-17T03:32:38;5.22;;;1.50;;
54919;SDS011;63804;53.120;8.764;2023-08-17T03:35:06;8.20;;;1.73;;
54919;SDS011;63804;53.120;8.764;2023-08-17T03:37:33;7.18;;;1.63;;
54919;SDS011;63804;53.120;8.764;2023-08-17T03:40:01;4.80;;;1.42;;
54919;SDS011;63804;53.120;8.764;2023-08-17T03:42:29;7.03;;;1.50;;
54919;SDS011;63804;53.120;8.764;2023-08-17T03:44:56;5.22;;;1.67;;
54919;SDS011;63804;53.120;8.764;2023-08-17T03:47:23;5.72;;;1.90;;
54919;SDS011;63804;53.120;8.764;2023-08-17T03:49:51;7.05;;;1.50;;
54919;SDS011;63804;53.120;8.764;2023-08-17T03:52:19;7.97;;;1.70;;
54919;SDS011;63804;53.120;8.764;2023-08-17T03:54:46;6.53;;;1.48;;
54919;SDS011;63804;53.120;8.764;2023-08-17T03:57:14;5.80;;;1.70;;
54919;SDS011;63804;53.120;8.764;2023-08-17T03:59:41;5.18;;;1.40;;
54919;SDS011;63804;53.120;8.764;2023-08-17T04:02:08;6.50;;;1.70;;
54919;SDS011;63804;53.120;8.764;2023-08-17T04:04:36;5.55;;;1.75;;
54919;SDS011;63804;53.120;8.764;2023-08-17T04:07:03;6.75;;;1.77;;
54919;SDS011;63804;53.120;8.764;2023-08-17T04:09:30;6.53;;;1.73;;
54919;SDS011;63804;53.120;8.764;2023-08-17T04:12:01;5.45;;;1.50;;
54919;SDS011;63804;53.120;8.764;2023-08-17T04:14:31;6.13;;;1.92;;
54919;SDS011;63804;53.120;8.764;2023-08-17T04:16:58;6.95;;;1.70;;
54919;SDS011;63804;53.120;8.764;2023-08-17T04:19:25;6.82;;;1.83;;
54919;SDS011;63804;53.120;8.764;2023-08-17T04:21:53;5.00;;;1.95;;
54919;SDS011;63804;53.120;8.764;2023-08-17T04:24:20;7.68;;;1.92;;
54919;SDS011;63804;53.120;8.764;2023-08-17T04:26:47;5.72;;;1.90;;
54919;SDS011;63804;53.120;8.764;2023-08-17T04:29:15;4.47;;;1.63;;
54919;SDS011;63804;53.120;8.764;2023-08-17T04:31:42;5.03;;;1.70;;
54919;SDS011;63804;53.120;8.764;2023-08-17T04:34:09;4.72;;;1.90;;
54919;SDS011;63804;53.120;8.764;2023-08-17T04:36:37;6.03;;;1.80;;
54919;SDS011;63804;53.120;8.764;2023-08-17T04:39:04;5.43;;;1.65;;
54919;SDS011;63804;53.120;8.764;2023-08-17T04:41:31;5.07;;;1.90;;
54919;SDS011;63804;53.120;8.764;2023-08-17T04:43:59;5.60;;;1.70;;
54919;SDS011;63804;53.120;8.764;2023-08-17T04:46:26;6.05;;;1.92;;
54919;SDS011;63804;53.120;8.764;2023-08-17T04:48:53;6.63;;;2.03;;
54919;SDS011;63804;53.120;8.764;2023-08-17T04:51:21;3.97;;;1.90;;
54919;SDS011;63804;53.120;8.764;2023-08-17T04:53:48;4.90;;;1.77;;
54919;SDS011;63804;53.120;8.764;2023-08-17T04:56:16;5.72;;;1.60;;
54919;SDS011;63804;53.120;8.764;2023-08-17T04:58:43;5.57;;;1.70;;
54919;SDS011;63804;53.120;8.764;2023-08-17T05:01:10;5.90;;;1.77;;
54919;SDS011;63804;53.120;8.764;2023-08-17T05:03:38;4.63;;;2.08;;
54919;SDS011;63804;53.120;8.764;2023-08-17T05:06:05;5.90;;;1.80;;
54919;SDS011;63804;53.120;8.764;2023-08-17T05:08:33;5.45;;;1.90;;
54919;SDS011;63804;53.120;8.764;2023-08-17T05:11:00;5.65;;;2.15;;
54919;SDS011;63804;53.120;8.764;2023-08-17T05:13:28;7.82;;;1.60;;
54919;SDS011;63804;53.120;8.764;2023-08-17T05:15:55;5.57;;;2.03;;
54919;SDS011;63804;53.120;8.764;2023-08-17T05:18:22;6.05;;;2.10;;
54919;SDS011;63804;53.120;8.764;2023-08-17T05:20:50;6.03;;;2.05;;
54919;SDS011;63804;53.120;8.764;2023-08-17T05:23:17;5.88;;;2.13;;
54919;SDS011;63804;53.120;8.764;2023-08-17T05:25:47;6.82;;;2.05;;
54919;SDS011;63804;53.120;8.764;2023-08-17T05:28:15;5.85;;;2.00;;
54919;SDS011;63804;53.120;8.764;2023-08-17T05:30:43;5.20;;;1.90;;
54919;SDS011;63804;53.120;8.764;2023-08-17T05:33:10;6.93;;;1.98;;
54919;SDS011;63804;53.120;8.764;2023-08-17T05:35:38;6.72;;;2.00;;
54919;SDS011;63804;53.120;8.764;2023-08-17T05:38:05;3.88;;;1.80;;
54919;SDS011;63804;53.120;8.764;2023-08-17T05:40:32;5.88;;;1.77;;
54919;SDS011;63804;53.120;8.764;2023-08-17T05:43:00;5.05;;;1.88;;
54919;SDS011;63804;53.120;8.764;2023-08-17T05:45:28;5.80;;;1.95;;
54919;SDS011;63804;53.120;8.764;2023-08-17T05:47:56;6.18;;;2.10;;
54919;SDS011;63804;53.120;8.764;2023-08-17T05:50:23;5.43;;;2.22;;
54919;SDS011;63804;53.120;8.764;2023-08-17T05:52:51;5.05;;;2.10;;
54919;SDS011;63804;53.120;8.764;2023-08-17T05:55:19;6.90;;;2.13;;
54919;SDS011;63804;53.120;8.764;2023-08-17T05:57:46;5.70;;;2.35;;
54919;SDS011;63804;53.120;8.764;2023-08-17T06:00:14;6.70;;;2.03;;
54919;SDS011;63804;53.120;8.764;2023-08-17T06:02:42;6.00;;;2.22;;
54919;SDS011;63804;53.120;8.764;2023-08-17T06:05:10;6.20;;;2.28;;
54919;SDS011;63804;53.120;8.764;2023-08-17T06:07:37;4.30;;;2.13;;
54919;SDS011;63804;53.120;8.764;2023-08-17T06:10:05;5.45;;;2.08;;
54919;SDS011;63804;53.120;8.764;2023-08-17T06:12:33;6.07;;;1.80;;
54919;SDS011;63804;53.120;8.764;2023-08-17T06:15:04;4.22;;;2.10;;
54919;SDS011;63804;53.120;8.764;2023-08-17T06:17:32;6.63;;;2.58;;
54919;SDS011;63804;53.120;8.764;2023-08-17T06:19:59;4.93;;;2.05;;
54919;SDS011;63804;53.120;8.764;2023-08-17T06:22:26;6.43;;;2.60;;
54919;SDS011;63804;53.120;8.764;2023-08-17T06:24:54;6.93;;;2.00;;
54919;SDS011;63804;53.120;8.764;2023-08-17T06:27:21;6.25;;;2.28;;
54919;SDS011;63804;53.120;8.764;2023-08-17T06:29:48;5.10;;;1.92;;
54919;SDS011;63804;53.120;8.764;2023-08-17T06:32:16;6.40;;;2.05;;
54919;SDS011;63804;53.120;8.764;2023-08-17T06:34:43;3.90;;;1.70;;
54919;SDS011;63804;53.120;8.764;2023-08-17T06:37:10;4.97;;;1.92;;
54919;SDS011;63804;53.120;8.764;2023-08-17T06:39:38;5.22;;;2.20;;
54919;SDS011;63804;53.120;8.764;2023-08-17T06:42:05;6.50;;;2.42;;
54919;SDS011;63804;53.120;8.764;2023-08-17T06:44:32;7.90;;;2.28;;
54919;SDS011;63804;53.120;8.764;2023-08-17T06:47:00;6.93;;;1.75;;
54919;SDS011;63804;53.120;8.764;2023-08-17T06:49:28;6.57;;;2.13;;
54919;SDS011;63804;53.120;8.764;2023-08-17T06:51:55;4.88;;;2.33;;
54919;SDS011;63804;53.120;8.764;2023-08-17T06:54:23;5.88;;;2.17;;
54919;SDS011;63804;53.120;8.764;2023-08-17T06:56:50;5.57;;;2.13;;
54919;SDS011;63804;53.120;8.764;2023-08-17T06:59:18;6.28;;;2.30;;
54919;SDS011;63804;53.120;8.764;2023-08-17T07:01:45;5.85;;;2.35;;
54919;SDS011;63804;53.120;8.764;2023-08-17T07:04:13;5.65;;;2.28;;
54919;SDS011;63804;53.120;8.764;2023-08-17T07:06:40;5.55;;;2.35;;
54919;SDS011;63804;53.120;8.764;2023-08-17T07:09:08;6.72;;;2.17;;
54919;SDS011;63804;53.120;8.764;2023-08-17T07:11:35;5.53;;;2.30;;
54919;SDS011;63804;53.120;8.764;2023-08-17T07:14:02;6.88;;;2.35;;
54919;SDS011;63804;53.120;8.764;2023-08-17T07:16:30;6.30;;;2.20;;
54919;SDS011;63804;53.120;8.764;2023-08-17T07:18:57;6.88;;;2.10;;
54919;SDS011;63804;53.120;8.764;2023-08-17T07:21:25;6.35;;;2.38;;
54919;SDS011;63804;53.120;8.764;2023-08-17T07:23:53;4.82;;;2.30;;
54919;SDS011;63804;53.120;8.764;2023-08-17T07:26:22;5.45;;;2.20;;
54919;SDS011;63804;53.120;8.764;2023-08-17T07:28:50;5.75;;;2.10;;
54919;SDS011;63804;53.120;8.764;2023-08-17T07:31:17;6.05;;;2.22;;
54919;SDS011;63804;53.120;8.764;2023-08-17T07:33:44;5.72;;;2.33;;
54919;SDS011;63804;53.120;8.764;2023-08-17T07:36:12;7.32;;;2.50;;
54919;SDS011;63804;53.120;8.764;2023-08-17T07:38:39;4.88;;;2.00;;
54919;SDS011;63804;53.120;8.764;2023-08-17T07:41:06;5.63;;;2.00;;
54919;SDS011;63804;53.120;8.764;2023-08-17T07:43:34;5.45;;;2.15;;
54919;SDS011;63804;53.120;8.764;2023-08-17T07:46:01;6.25;;;2.20;;
54919;SDS011;63804;53.120;8.764;2023-08-17T07:48:29;4.72;;;2.20;;
54919;SDS011;63804;53.120;8.764;2023-08-17T07:51:00;4.72;;;1.85;;
54919;SDS011;63804;53.120;8.764;2023-08-17T07:53:28;6.20;;;1.90;;
54919;SDS011;63804;53.120;8.764;2023-08-17T07:55:55;8.70;;;2.05;;
54919;SDS011;63804;53.120;8.764;2023-08-17T07:58:24;3.78;;;1.70;;
54919;SDS011;63804;53.120;8.764;2023-08-17T08:00:51;4.40;;;1.70;;
54919;SDS011;63804;53.120;8.764;2023-08-17T08:03:19;3.10;;;1.55;;
54919;SDS011;63804;53.120;8.764;2023-08-17T08:05:46;3.80;;;1.50;;
54919;SDS011;63804;53.120;8.764;2023-08-17T08:08:14;4.28;;;1.40;;
54919;SDS011;63804;53.120;8.764;2023-08-17T08:10:41;3.78;;;1.45;;
54919;SDS011;63804;53.120;8.764;2023-08-17T08:13:09;4.05;;;1.40;;
54919;SDS011;63804;53.120;8.764;2023-08-17T08:15:38;5.07;;;1.70;;
54919;SDS011;63804;53.120;8.764;2023-08-17T08:18:06;4.15;;;1.48;;
54919;SDS011;63804;53.120;8.764;2023-08-17T08:20:33;6.15;;;1.40;;
54919;SDS011;63804;53.120;8.764;2023-08-17T08:23:01;2.42;;;1.40;;
54919;SDS011;63804;53.120;8.764;2023-08-17T08:25:29;4.57;;;1.42;;
54919;SDS011;63804;53.120;8.764;2023-08-17T08:27:56;3.97;;;1.50;;
54919;SDS011;63804;53.120;8.764;2023-08-17T08:30:24;3.28;;;1.30;;
54919;SDS011;63804;53.120;8.764;2023-08-17T08:32:51;3.17;;;1.38;;
54919;SDS011;63804;53.120;8.764;2023-08-17T08:35:19;4.32;;;1.60;;
54919;SDS011;63804;53.120;8.764;2023-08-17T08:37:46;5.90;;;1.70;;
54919;SDS011;63804;53.120;8.764;2023-08-17T08:40:13;3.97;;;1.52;;
54919;SDS011;63804;53.120;8.764;2023-08-17T08:42:43;3.35;;;1.60;;
54919;SDS011;63804;53.120;8.764;2023-08-17T08:45:11;4.00;;;1.70;;
54919;SDS011;63804;53.120;8.764;2023-08-17T08:47:38;3.53;;;1.52;;
54919;SDS011;63804;53.120;8.764;2023-08-17T08:50:09;4.05;;;1.50;;
54919;SDS011;63804;53.120;8.764;2023-08-17T08:52:44;2.95;;;1.50;;
54919;SDS011;63804;53.120;8.764;2023-08-17T08:55:18;4.20;;;1.60;;
54919;SDS011;63804;53.120;8.764;2023-08-17T08:57:46;5.13;;;1.73;;
54919;SDS011;63804;53.120;8.764;2023-08-17T09:00:17;3.95;;;1.45;;
54919;SDS011;63804;53.120;8.764;2023-08-17T09:02:45;2.85;;;1.52;;
54919;SDS011;63804;53.120;8.764;2023-08-17T09:05:13;5.65;;;1.40;;
54919;SDS011;63804;53.120;8.764;2023-08-17T09:07:42;2.38;;;1.30;;
54919;SDS011;63804;53.120;8.764;2023-08-17T09:10:10;5.25;;;1.40;;
54919;SDS011;63804;53.120;8.764;2023-08-17T09:12:39;6.13;;;1.33;;
54919;SDS011;63804;53.120;8.764;2023-08-17T09:15:08;2.80;;;1.17;;
54919;SDS011;63804;53.120;8.764;2023-08-17T09:17:36;2.63;;;1.15;;
54919;SDS011;63804;53.120;8.764;2023-08-17T09:20:04;3.40;;;1.23;;
54919;SDS011;63804;53.120;8.764;2023-08-17T09:22:38;4.07;;;1.55;;
54919;SDS011;63804;53.120;8.764;2023-08-17T09:25:07;2.13;;;1.20;;
54919;SDS011;63804;53.120;8.764;2023-08-17T09:27:38;3.28;;;1.20;;
54919;SDS011;63804;53.120;8.764;2023-08-17T09:30:07;3.33;;;1.13;;
54919;SDS011;63804;53.120;8.764;2023-08-17T09:32:36;4.15;;;1.30;;
54919;SDS011;63804;53.120;8.764;2023-08-17T09:35:04;1.70;;;1.02;;
54919;SDS011;63804;53.120;8.764;2023-08-17T09:37:32;3.25;;;1.42;;
54919;SDS011;63804;53.120;8.764;2023-08-17T09:40:00;4.00;;;1.40;;
54919;SDS011;63804;53.120;8.764;2023-08-17T09:42:28;2.63;;;1.40;;
54919;SDS011;63804;53.120;8.764;2023-08-17T09:44:55;3.80;;;1.30;;
54919;SDS011;63804;53.120;8.764;2023-08-17T09:47:24;3.92;;;1.30;;
54919;SDS011;63804;53.120;8.764;2023-08-17T09:49:52;5.82;;;1.50;;
54919;SDS011;63804;53.120;8.764;2023-08-17T09:52:20;3.95;;;1.58;;
54919;SDS011;63804;53.120;8.764;2023-08-17T09:54:49;3.88;;;1.55;;
54919;SDS011;63804;53.120;8.764;2023-08-17T09:57:20;4.00;;;1.60;;
54919;SDS011;63804;53.120;8.764;2023-08-17T09:59:49;2.05;;;1.05;;
54919;SDS011;63804;53.120;8.764;2023-08-17T10:02:22;2.58;;;1.30;;
54919;SDS011;63804;53.120;8.764;2023-08-17T10:04:52;3.17;;;1.42;;
54919;SDS011;63804;53.120;8.764;2023-08-17T10:07:21;3.45;;;1.23;;
54919;SDS011;63804;53.120;8.764;2023-08-17T10:09:56;3.80;;;1.73;;
54919;SDS011;63804;53.120;8.764;2023-08-17T10:12:31;2.67;;;1.40;;
54919;SDS011;63804;53.120;8.764;2023-08-17T10:15:03;3.55;;;1.48;;
54919;SDS011;63804;53.120;8.764;2023-08-17T10:17:37;3.60;;;1.20;;
54919;SDS011;63804;53.120;8.764;2023-08-17T10:20:10;3.67;;;1.27;;
54919;SDS011;63804;53.120;8.764;2023-08-17T10:22:42;3.55;;;1.27;;
54919;SDS011;63804;53.120;8.764;2023-08-17T10:25:18;1.95;;;1.23;;
54919;SDS011;63804;53.120;8.764;2023-08-17T10:27:50;2.30;;;1.27;;
54919;SDS011;63804;53.120;8.764;2023-08-17T10:30:25;3.13;;;1.60;;
54919;SDS011;63804;53.120;8.764;2023-08-17T10:32:52;3.85;;;1.40;;
54919;SDS011;63804;53.120;8.764;2023-08-17T10:35:20;3.03;;;1.30;;
54919;SDS011;63804;53.120;8.764;2023-08-17T10:37:48;2.83;;;1.48;;
54919;SDS011;63804;53.120;8.764;2023-08-17T10:40:16;2.50;;;1.10;;
54919;SDS011;63804;53.120;8.764;2023-08-17T10:42:43;3.20;;;1.20;;
54919;SDS011;63804;53.120;8.764;2023-08-17T10:45:28;2.50;;;1.25;;
54919;SDS011;63804;53.120;8.764;2023-08-17T10:50:36;2.65;;;1.30;;
54919;SDS011;63804;53.120;8.764;2023-08-17T10:55:38;2.15;;;1.15;;
54919;SDS011;63804;53.120;8.764;2023-08-17T10:58:07;2.78;;;1.30;;
54919;SDS011;63804;53.120;8.764;2023-08-17T11:00:41;1.92;;;1.13;;
54919;SDS011;63804;53.120;8.764;2023-08-17T11:03:18;3.17;;;1.30;;
54919;SDS011;63804;53.120;8.764;2023-08-17T11:05:48;2.65;;;1.42;;
54919;SDS011;63804;53.120;8.764;2023-08-17T11:08:23;4.35;;;1.42;;
54919;SDS011;63804;53.120;8.764;2023-08-17T11:11:10;3.72;;;1.23;;
54919;SDS011;63804;53.120;8.764;2023-08-17T11:13:40;3.97;;;1.20;;
54919;SDS011;63804;53.120;8.764;2023-08-17T11:16:12;3.60;;;1.30;;
54919;SDS011;63804;53.120;8.764;2023-08-17T11:18:45;3.50;;;1.65;;
54919;SDS011;63804;53.120;8.764;2023-08-17T11:21:13;2.33;;;1.27;;
54919;SDS011;63804;53.120;8.764;2023-08-17T11:23:44;3.35;;;1.40;;
54919;SDS011;63804;53.120;8.764;2023-08-17T11:26:15;3.28;;;1.40;;
54919;SDS011;63804;53.120;8.764;2023-08-17T11:28:43;3.47;;;1.48;;
54919;SDS011;63804;53.120;8.764;2023-08-17T11:31:12;3.88;;;1.38;;
54919;SDS011;63804;53.120;8.764;2023-08-17T11:33:42;3.22;;;1.40;;
54919;SDS011;63804;53.120;8.764;2023-08-17T11:36:09;4.07;;;1.70;;
54919;SDS011;63804;53.120;8.764;2023-08-17T11:38:38;4.15;;;1.40;;
54919;SDS011;63804;53.120;8.764;2023-08-17T11:41:07;2.58;;;1.45;;
54919;SDS011;63804;53.120;8.764;2023-08-17T11:43:36;1.90;;;1.30;;
54919;SDS011;63804;53.120;8.764;2023-08-17T11:46:04;2.92;;;1.40;;
54919;SDS011;63804;53.120;8.764;2023-08-17T11:48:32;4.93;;;1.70;;
54919;SDS011;63804;53.120;8.764;2023-08-17T11:51:03;4.32;;;1.90;;
54919;SDS011;63804;53.120;8.764;2023-08-17T11:53:37;3.63;;;1.40;;
54919;SDS011;63804;53.120;8.764;2023-08-17T11:56:08;2.75;;;1.60;;
54919;SDS011;63804;53.120;8.764;2023-08-17T11:58:45;3.53;;;1.55;;
54919;SDS011;63804;53.120;8.764;2023-08-17T12:01:13;3.40;;;1.30;;
54919;SDS011;63804;53.120;8.764;2023-08-17T12:03:44;2.15;;;1.40;;
54919;SDS011;63804;53.120;8.764;2023-08-17T12:06:12;2.88;;;1.30;;
54919;SDS011;63804;53.120;8.764;2023-08-17T12:08:47;2.53;;;1.48;;
54919;SDS011;63804;53.120;8.764;2023-08-17T12:11:16;3.10;;;1.33;;
54919;SDS011;63804;53.120;8.764;2023-08-17T12:13:49;3.20;;;1.40;;
54919;SDS011;63804;53.120;8.764;2023-08-17T12:16:18;2.53;;;1.60;;
54919;SDS011;63804;53.120;8.764;2023-08-17T12:18:48;2.95;;;1.30;;
54919;SDS011;63804;53.120;8.764;2023-08-17T12:21:16;2.38;;;1.40;;
54919;SDS011;63804;53.120;8.764;2023-08-17T12:23:46;2.35;;;1.48;;
54919;SDS011;63804;53.120;8.764;2023-08-17T12:26:18;2.38;;;1.20;;
54919;SDS011;63804;53.120;8.764;2023-08-17T12:28:49;3.13;;;1.60;;
54919;SDS011;63804;53.120;8.764;2023-08-17T12:31:25;3.10;;;1.20;;
54919;SDS011;63804;53.120;8.764;2023-08-17T12:33:56;2.25;;;1.33;;
54919;SDS011;63804;53.120;8.764;2023-08-17T12:36:24;3.05;;;1.30;;
54919;SDS011;63804;53.120;8.764;2023-08-17T12:38:51;2.05;;;1.25;;
54919;SDS011;63804;53.120;8.764;2023-08-17T12:41:19;1.80;;;1.25;;
54919;SDS011;63804;53.120;8.764;2023-08-17T12:43:46;1.50;;;0.88;;
54919;SDS011;63804;53.120;8.764;2023-08-17T12:46:13;1.58;;;1.10;;
54919;SDS011;63804;53.120;8.764;2023-08-17T12:48:41;1.17;;;1.08;;
54919;SDS011;63804;53.120;8.764;2023-08-17T12:51:08;2.10;;;1.30;;
54919;SDS011;63804;53.120;8.764;2023-08-17T12:53:36;1.52;;;1.30;;
54919;SDS011;63804;53.120;8.764;2023-08-17T12:56:03;2.17;;;1.42;;
54919;SDS011;63804;53.120;8.764;2023-08-17T12:58:31;2.45;;;1.65;;
54919;SDS011;63804;53.120;8.764;2023-08-17T13:00:58;2.35;;;1.50;;
54919;SDS011;63804;53.120;8.764;2023-08-17T13:03:26;3.55;;;1.50;;
54919;SDS011;63804;53.120;8.764;2023-08-17T13:05:53;3.53;;;1.52;;
54919;SDS011;63804;53.120;8.764;2023-08-17T13:08:21;1.33;;;1.23;;
54919;SDS011;63804;53.120;8.764;2023-08-17T13:10:49;3.60;;;1.30;;
54919;SDS011;63804;53.120;8.764;2023-08-17T13:13:17;1.85;;;1.10;;
54919;SDS011;63804;53.120;8.764;2023-08-17T13:15:44;2.03;;;1.48;;
54919;SDS011;63804;53.120;8.764;2023-08-17T13:18:11;1.42;;;0.98;;
54919;SDS011;63804;53.120;8.764;2023-08-17T13:20:39;3.03;;;1.30;;
54919;SDS011;63804;53.120;8.764;2023-08-17T13:23:07;2.63;;;1.40;;
54919;SDS011;63804;53.120;8.764;2023-08-17T13:25:35;2.25;;;1.15;;
54919;SDS011;63804;53.120;8.764;2023-08-17T13:28:02;2.45;;;0.90;;
54919;SDS011;63804;53.120;8.764;2023-08-17T13:30:30;1.13;;;0.70;;
54919;SDS011;63804;53.120;8.764;2023-08-17T13:32:57;1.85;;;0.80;;
54919;SDS011;63804;53.120;8.764;2023-08-17T13:35:25;2.00;;;0.90;;
54919;SDS011;63804;53.120;8.764;2023-08-17T13:37:52;3.58;;;0.70;;
54919;SDS011;63804;53.120;8.764;2023-08-17T13:40:24;2.80;;;0.70;;
54919;SDS011;63804;53.120;8.764;2023-08-17T13:42:52;1.83;;;0.80;;
54919;SDS011;63804;53.120;8.764;2023-08-17T13:45:19;2.13;;;0.60;;
54919;SDS011;63804;53.120;8.764;2023-08-17T13:47:46;1.75;;;0.68;;
54919;SDS011;63804;53.120;8.764;2023-08-17T13:50:14;2.70;;;0.70;;
54919;SDS011;63804;53.120;8.764;2023-08-17T13:52:41;2.28;;;0.70;;
54919;SDS011;63804;53.120;8.764;2023-08-17T13:55:08;1.52;;;0.52;;
54919;SDS011;63804;53.120;8.764;2023-08-17T13:57:36;2.22;;;0.90;;
54919;SDS011;63804;53.120;8.764;2023-08-17T14:00:03;1.85;;;0.90;;
54919;SDS011;63804;53.120;8.764;2023-08-17T14:02:31;2.17;;;0.77;;
54919;SDS011;63804;53.120;8.764;2023-08-17T14:04:59;2.30;;;0.85;;
54919;SDS011;63804;53.120;8.764;2023-08-17T14:07:28;1.90;;;0.80;;
54919;SDS011;63804;53.120;8.764;2023-08-17T14:09:55;1.08;;;0.80;;
54919;SDS011;63804;53.120;8.764;2023-08-17T14:12:36;2.03;;;0.70;;
54919;SDS011;63804;53.120;8.764;2023-08-17T14:15:04;1.00;;;0.60;;
54919;SDS011;63804;53.120;8.764;2023-08-17T14:17:31;1.75;;;0.63;;
54919;SDS011;63804;53.120;8.764;2023-08-17T14:19:59;1.88;;;0.60;;
54919;SDS011;63804;53.120;8.764;2023-08-17T14:22:26;1.83;;;0.70;;
54919;SDS011;63804;53.120;8.764;2023-08-17T14:24:54;1.15;;;0.70;;
54919;SDS011;63804;53.120;8.764;2023-08-17T14:27:22;0.93;;;0.52;;
54919;SDS011;63804;53.120;8.764;2023-08-17T14:29:49;1.42;;;0.70;;
54919;SDS011;63804;53.120;8.764;2023-08-17T14:32:17;0.85;;;0.60;;
54919;SDS011;63804;53.120;8.764;2023-08-17T14:34:44;1.67;;;0.70;;
54919;SDS011;63804;53.120;8.764;2023-08-17T14:37:11;1.40;;;0.60;;
54919;SDS011;63804;53.120;8.764;2023-08-17T14:39:39;1.95;;;0.80;;
54919;SDS011;63804;53.120;8.764;2023-08-17T14:42:06;1.33;;;0.65;;
54919;SDS011;63804;53.120;8.764;2023-08-17T14:44:33;2.22;;;0.70;;
54919;SDS011;63804;53.120;8.764;2023-08-17T14:47:01;1.63;;;0.70;;
54919;SDS011;63804;53.120;8.764;2023-08-17T14:49:28;1.55;;;0.90;;
54919;SDS011;63804;53.120;8.764;2023-08-17T14:51:56;2.00;;;0.80;;
54919;SDS011;63804;53.120;8.764;2023-08-17T14:54:23;2.10;;;0.80;;
54919;SDS011;63804;53.120;8.764;2023-08-17T14:56:52;2.97;;;0.90;;
54919;SDS011;63804;53.120;8.764;2023-08-17T14:59:23;2.15;;;0.70;;
54919;SDS011;63804;53.120;8.764;2023-08-17T15:01:50;2.58;;;1.00;;
54919;SDS011;63804;53.120;8.764;2023-08-17T15:04:37;1.58;;;0.80;;